sensor_id;sensor_type;location;lat;lon;timestamp;temperature;humidity
29501;DHT22;16450;50.288;10.966;2024-01-15T00:02:23;-2.10;99.90
29501;DHT22;16450;50.288;10.966;2024-01-15T00:05:25;-2.10;99.90
29501;DHT22;16450;50.288;10.966;2024-01-15T00:08:26;-2.10;99.90
29501;DHT22;16450;50.288;10.966;2024-01-15T00:11:28;-2.20;99.90
29501;DHT22;16450;50.288;10.966;2024-01-15T00:14:30;-2.10;99.90
29501;DHT22;16450;50.288;10.966;2024-01-15T00:17:32;-2.20;99.90
29501;DHT22;16450;50.288;10.966;2024-01-15T00:20:34;-2.20;99.90
29501;DHT22;16450;50.288;10.966;2024-01-15T00:23:36;-2.20;99.90
29501;DHT22;16450;50.288;10.966;2024-01-15T00:26:38;-2.20;99.90
29501;DHT22;16450;50.288;10.966;2024-01-15T00:29:39;-2.20;99.90
29501;DHT22;16450;50.288;10.966;2024-01-15T00:32:41;-2.20;99.90
29501;DHT22;16450;50.288;10.966;2024-01-15T00:35:43;-2.30;99.90
29501;DHT22;16450;50.288;10.966;2024-01-15T00:38:45;-2.30;99.90
29501;DHT22;16450;50.288;10.966;2024-01-15T00:41:49;-2.30;99.90
29501;DHT22;16450;50.288;10.966;2024-01-15T00:44:51;-2.30;99.90
29501;DHT22;16450;50.288;10.966;2024-01-15T00:47:52;-2.40;99.90
29501;DHT22;16450;50.288;10.966;2024-01-15T00:50:54;-2.40;99.90
29501;DHT22;16450;50.288;10.966;2024-01-15T00:53:56;-2.40;99.90
29501;DHT22;16450;50.288;10.966;2024-01-15T00:56:58;-2.40;99.90
29501;DHT22;16450;50.288;10.966;2024-01-15T01:00:00;-2.40;99.90
29501;DHT22;16450;50.288;10.966;2024-01-15T01:03:06;-2.40;99.90
29501;DHT22;16450;50.288;10.966;2024-01-15T01:06:08;-2.40;99.90
29501;DHT22;16450;50.288;10.966;2024-01-15T01:09:10;-2.40;99.90
29501;DHT22;16450;50.288;10.966;2024-01-15T01:12:12;-2.40;99.90
29501;DHT22;16450;50.288;10.966;2024-01-15T01:15:14;-2.40;99.90
29501;DHT22;16450;50.288;10.966;2024-01-15T01:18:16;-2.40;99.90
29501;DHT22;16450;50.288;10.966;2024-01-15T01:21:18;-2.40;99.90
29501;DHT22;16450;50.288;10.966;2024-01-15T01:24:21;-2.40;99.90
29501;DHT22;16450;50.288;10.966;2024-01-15T01:27:22;-2.40;99.90
29501;DHT22;16450;50.288;10.966;2024-01-15T01:30:24;-2.40;99.90
29501;DHT22;16450;50.288;10.966;2024-01-15T01:33:26;-2.30;99.90
29501;DHT22;16450;50.288;10.966;2024-01-15T01:36:28;-2.40;99.90
29501;DHT22;16450;50.288;10.966;2024-01-15T01:39:32;-2.30;99.90
29501;DHT22;16450;50.288;10.966;2024-01-15T01:42:34;-2.30;99.90
29501;DHT22;16450;50.288;10.966;2024-01-15T01:45:37;-2.30;99.90
29501;DHT22;16450;50.288;10.966;2024-01-15T01:48:40;-2.30;99.90
29501;DHT22;16450;50.288;10.966;2024-01-15T01:51:42;-2.30;99.90
29501;DHT22;16450;50.288;10.966;2024-01-15T01:54:44;-2.30;99.90
29501;DHT22;16450;50.288;10.966;2024-01-15T01:57:47;-2.30;99.90
29501;DHT22;16450;50.288;10.966;2024-01-15T02:00:49;-2.30;99.90
29501;DHT22;16450;50.288;10.966;2024-01-15T02:03:51;-2.30;99.90
29501;DHT22;16450;50.288;10.966;2024-01-15T02:06:53;-2.30;99.90
29501;DHT22;16450;50.288;10.966;2024-01-15T02:09:55;-2.30;99.90
29501;DHT22;16450;50.288;10.966;2024-01-15T02:12:57;-2.30;99.90
29501;DHT22;16450;50.288;10.966;2024-01-15T02:15:59;-2.30;99.90
29501;DHT22;16450;50.288;10.966;2024-01-15T02:19:01;-2.30;99.90
29501;DHT22;16450;50.288;10.966;2024-01-15T02:22:03;-2.30;99.90
29501;DHT22;16450;50.288;10.966;2024-01-15T02:25:05;-2.30;99.90
29501;DHT22;16450;50.288;10.966;2024-01-15T02:28:12;-2.30;99.90
29501;DHT22;16450;50.288;10.966;2024-01-15T02:31:14;-2.30;99.90
29501;DHT22;16450;50.288;10.966;2024-01-15T02:34:16;-2.30;99.90
29501;DHT22;16450;50.288;10.966;2024-01-15T02:37:18;-2.30;99.90
29501;DHT22;16450;50.288;10.966;2024-01-15T02:40:20;-2.30;99.90
29501;DHT22;16450;50.288;10.966;2024-01-15T02:43:22;-2.30;99.90
29501;DHT22;16450;50.288;10.966;2024-01-15T02:46:24;-2.30;99.90
29501;DHT22;16450;50.288;10.966;2024-01-15T02:49:25;-2.30;99.90
29501;DHT22;16450;50.288;10.966;2024-01-15T02:52:27;-2.30;99.90
29501;DHT22;16450;50.288;10.966;2024-01-15T02:55:29;-2.30;99.90
29501;DHT22;16450;50.288;10.966;2024-01-15T02:58:31;-2.30;99.90
29501;DHT22;16450;50.288;10.966;2024-01-15T03:01:33;-2.30;99.90
29501;DHT22;16450;50.288;10.966;2024-01-15T03:04:35;-2.30;99.90
29501;DHT22;16450;50.288;10.966;2024-01-15T03:07:37;-2.30;99.90
29501;DHT22;16450;50.288;10.966;2024-01-15T03:10:38;-2.30;99.90
29501;DHT22;16450;50.288;10.966;2024-01-15T03:13:40;-2.30;99.90
29501;DHT22;16450;50.288;10.966;2024-01-15T03:16:43;-2.30;99.90
29501;DHT22;16450;50.288;10.966;2024-01-15T03:19:44;-2.30;99.90
29501;DHT22;16450;50.288;10.966;2024-01-15T03:22:46;-2.30;99.90
29501;DHT22;16450;50.288;10.966;2024-01-15T03:25:48;-2.30;99.90
29501;DHT22;16450;50.288;10.966;2024-01-15T03:28:51;-2.30;99.90
29501;DHT22;16450;50.288;10.966;2024-01-15T03:31:53;-2.30;99.90
29501;DHT22;16450;50.288;10.966;2024-01-15T03:34:55;-2.30;99.90
29501;DHT22;16450;50.288;10.966;2024-01-15T03:37:57;-2.30;99.90
29501;DHT22;16450;50.288;10.966;2024-01-15T03:40:58;-2.20;99.90
29501;DHT22;16450;50.288;10.966;2024-01-15T03:44:00;-2.20;99.90
29501;DHT22;16450;50.288;10.966;2024-01-15T03:47:03;-2.20;99.90
29501;DHT22;16450;50.288;10.966;2024-01-15T03:50:05;-2.20;99.90
29501;DHT22;16450;50.288;10.966;2024-01-15T03:53:07;-2.20;99.90
29501;DHT22;16450;50.288;10.966;2024-01-15T03:56:09;-2.20;99.90
29501;DHT22;16450;50.288;10.966;2024-01-15T03:59:11;-2.20;99.90
29501;DHT22;16450;50.288;10.966;2024-01-15T04:02:13;-2.20;99.90
29501;DHT22;16450;50.288;10.966;2024-01-15T04:05:18;-2.20;99.90
29501;DHT22;16450;50.288;10.966;2024-01-15T04:08:20;-2.20;99.90
29501;DHT22;16450;50.288;10.966;2024-01-15T04:11:22;-2.20;99.90
29501;DHT22;16450;50.288;10.966;2024-01-15T04:14:24;-2.20;99.90
29501;DHT22;16450;50.288;10.966;2024-01-15T04:17:27;-2.20;99.90
29501;DHT22;16450;50.288;10.966;2024-01-15T04:20:29;-2.20;99.90
29501;DHT22;16450;50.288;10.966;2024-01-15T04:23:32;-2.20;99.90
29501;DHT22;16450;50.288;10.966;2024-01-15T04:26:33;-2.20;99.90
29501;DHT22;16450;50.288;10.966;2024-01-15T04:29:38;-2.20;99.90
29501;DHT22;16450;50.288;10.966;2024-01-15T04:32:42;-2.20;99.90
29501;DHT22;16450;50.288;10.966;2024-01-15T04:35:44;-2.20;99.90
29501;DHT22;16450;50.288;10.966;2024-01-15T04:38:46;-2.20;99.90
29501;DHT22;16450;50.288;10.966;2024-01-15T04:41:48;-2.20;99.90
29501;DHT22;16450;50.288;10.966;2024-01-15T04:44:50;-2.20;99.90
29501;DHT22;16450;50.288;10.966;2024-01-15T04:47:52;-2.20;99.90
29501;DHT22;16450;50.288;10.966;2024-01-15T04:50:53;-2.20;99.90
29501;DHT22;16450;50.288;10.966;2024-01-15T04:53:55;-2.20;99.90
29501;DHT22;16450;50.288;10.966;2024-01-15T04:56:57;-2.20;99.90
29501;DHT22;16450;50.288;10.966;2024-01-15T04:59:59;-2.20;99.90
29501;DHT22;16450;50.288;10.966;2024-01-15T05:03:01;-2.20;99.90
29501;DHT22;16450;50.288;10.966;2024-01-15T05:06:03;-2.20;99.90
29501;DHT22;16450;50.288;10.966;2024-01-15T05:09:05;-2.20;99.90
29501;DHT22;16450;50.288;10.966;2024-01-15T05:12:07;-2.20;99.90
29501;DHT22;16450;50.288;10.966;2024-01-15T05:15:09;-2.20;99.90
29501;DHT22;16450;50.288;10.966;2024-01-15T05:18:11;-2.20;99.90
29501;DHT22;16450;50.288;10.966;2024-01-15T05:21:13;-2.20;99.90
29501;DHT22;16450;50.288;10.966;2024-01-15T05:24:15;-2.20;99.90
29501;DHT22;16450;50.288;10.966;2024-01-15T05:27:17;-2.20;99.90
29501;DHT22;16450;50.288;10.966;2024-01-15T05:30:19;-2.20;99.90
29501;DHT22;16450;50.288;10.966;2024-01-15T05:33:22;-2.20;99.90
29501;DHT22;16450;50.288;10.966;2024-01-15T05:36:24;-2.20;99.90
29501;DHT22;16450;50.288;10.966;2024-01-15T05:39:26;-2.20;99.90
29501;DHT22;16450;50.288;10.966;2024-01-15T05:42:28;-2.20;99.90
29501;DHT22;16450;50.288;10.966;2024-01-15T05:45:34;-2.20;99.90
29501;DHT22;16450;50.288;10.966;2024-01-15T05:48:38;-2.20;99.90
29501;DHT22;16450;50.288;10.966;2024-01-15T05:51:41;-2.20;99.90
29501;DHT22;16450;50.288;10.966;2024-01-15T05:54:42;-2.20;99.90
29501;DHT22;16450;50.288;10.966;2024-01-15T05:57:45;-2.20;99.90
29501;DHT22;16450;50.288;10.966;2024-01-15T06:00:47;-2.20;99.90
29501;DHT22;16450;50.288;10.966;2024-01-15T06:03:49;-2.20;99.90
29501;DHT22;16450;50.288;10.966;2024-01-15T06:06:51;-2.20;99.90
29501;DHT22;16450;50.288;10.966;2024-01-15T06:09:54;-2.20;99.90
29501;DHT22;16450;50.288;10.966;2024-01-15T06:12:56;-2.20;99.90
29501;DHT22;16450;50.288;10.966;2024-01-15T06:15:58;-2.20;99.90
29501;DHT22;16450;50.288;10.966;2024-01-15T06:19:00;-2.20;99.90
29501;DHT22;16450;50.288;10.966;2024-01-15T06:22:02;-2.20;99.90
29501;DHT22;16450;50.288;10.966;2024-01-15T06:25:06;-2.20;99.90
29501;DHT22;16450;50.288;10.966;2024-01-15T06:28:08;-2.20;99.90
29501;DHT22;16450;50.288;10.966;2024-01-15T06:31:10;-2.20;99.90
29501;DHT22;16450;50.288;10.966;2024-01-15T06:34:13;-2.20;99.90
29501;DHT22;16450;50.288;10.966;2024-01-15T06:37:15;-2.10;99.90
29501;DHT22;16450;50.288;10.966;2024-01-15T06:40:16;-2.20;99.90
29501;DHT22;16450;50.288;10.966;2024-01-15T06:43:18;-2.20;99.90
29501;DHT22;16450;50.288;10.966;2024-01-15T06:46:23;-2.10;99.90
29501;DHT22;16450;50.288;10.966;2024-01-15T06:49:25;-2.10;99.90
29501;DHT22;16450;50.288;10.966;2024-01-15T06:52:27;-2.10;99.90
29501;DHT22;16450;50.288;10.966;2024-01-15T06:55:29;-2.10;99.90
29501;DHT22;16450;50.288;10.966;2024-01-15T06:58:31;-2.10;99.90
29501;DHT22;16450;50.288;10.966;2024-01-15T07:01:33;-2.10;99.90
29501;DHT22;16450;50.288;10.966;2024-01-15T07:04:35;-2.20;99.90
29501;DHT22;16450;50.288;10.966;2024-01-15T07:07:37;-2.20;99.90
29501;DHT22;16450;50.288;10.966;2024-01-15T07:10:38;-2.20;99.90
29501;DHT22;16450;50.288;10.966;2024-01-15T07:13:40;-2.20;99.90
29501;DHT22;16450;50.288;10.966;2024-01-15T07:16:42;-2.30;99.90
29501;DHT22;16450;50.288;10.966;2024-01-15T07:19:49;-2.30;99.90
29501;DHT22;16450;50.288;10.966;2024-01-15T07:22:50;-2.30;99.90
29501;DHT22;16450;50.288;10.966;2024-01-15T07:25:52;-2.30;99.90
29501;DHT22;16450;50.288;10.966;2024-01-15T07:28:55;-2.30;99.90
29501;DHT22;16450;50.288;10.966;2024-01-15T07:31:57;-2.30;99.90
29501;DHT22;16450;50.288;10.966;2024-01-15T07:34:59;-2.30;99.90
29501;DHT22;16450;50.288;10.966;2024-01-15T07:38:01;-2.30;99.90
29501;DHT22;16450;50.288;10.966;2024-01-15T07:41:03;-2.30;99.90
29501;DHT22;16450;50.288;10.966;2024-01-15T07:44:05;-2.20;99.90
29501;DHT22;16450;50.288;10.966;2024-01-15T07:47:07;-2.20;99.90
29501;DHT22;16450;50.288;10.966;2024-01-15T07:50:10;-2.20;99.90
29501;DHT22;16450;50.288;10.966;2024-01-15T07:53:12;-2.10;99.90
29501;DHT22;16450;50.288;10.966;2024-01-15T07:56:14;-2.10;99.90
29501;DHT22;16450;50.288;10.966;2024-01-15T07:59:15;-2.10;99.90
29501;DHT22;16450;50.288;10.966;2024-01-15T08:02:17;-2.00;99.90
29501;DHT22;16450;50.288;10.966;2024-01-15T08:05:19;-2.00;99.90
29501;DHT22;16450;50.288;10.966;2024-01-15T08:08:22;-2.00;99.90
29501;DHT22;16450;50.288;10.966;2024-01-15T08:11:24;-2.00;99.90
29501;DHT22;16450;50.288;10.966;2024-01-15T08:14:26;-2.00;99.90
29501;DHT22;16450;50.288;10.966;2024-01-15T08:17:28;-2.00;99.90
29501;DHT22;16450;50.288;10.966;2024-01-15T08:20:30;-1.90;99.90
29501;DHT22;16450;50.288;10.966;2024-01-15T08:23:34;-1.90;99.90
29501;DHT22;16450;50.288;10.966;2024-01-15T08:26:36;-1.80;99.90
29501;DHT22;16450;50.288;10.966;2024-01-15T08:29:38;-1.80;99.90
29501;DHT22;16450;50.288;10.966;2024-01-15T08:32:40;-1.80;99.90
29501;DHT22;16450;50.288;10.966;2024-01-15T08:35:44;-1.70;99.90
29501;DHT22;16450;50.288;10.966;2024-01-15T08:38:47;-1.70;99.90
29501;DHT22;16450;50.288;10.966;2024-01-15T08:41:49;-1.70;99.90
29501;DHT22;16450;50.288;10.966;2024-01-15T08:44:50;-1.60;99.90
29501;DHT22;16450;50.288;10.966;2024-01-15T08:48:09;-1.60;99.90
29501;DHT22;16450;50.288;10.966;2024-01-15T08:51:14;-1.50;99.90
29501;DHT22;16450;50.288;10.966;2024-01-15T08:54:16;-1.50;99.90
29501;DHT22;16450;50.288;10.966;2024-01-15T08:57:19;-1.50;99.90
29501;DHT22;16450;50.288;10.966;2024-01-15T09:00:21;-1.40;99.90
29501;DHT22;16450;50.288;10.966;2024-01-15T09:03:23;-1.40;99.90
29501;DHT22;16450;50.288;10.966;2024-01-15T09:06:25;-1.40;99.90
29501;DHT22;16450;50.288;10.966;2024-01-15T09:09:27;-1.30;99.90
29501;DHT22;16450;50.288;10.966;2024-01-15T09:12:29;-1.40;99.90
29501;DHT22;16450;50.288;10.966;2024-01-15T09:15:31;-1.30;99.90
29501;DHT22;16450;50.288;10.966;2024-01-15T09:18:33;-1.30;99.90
29501;DHT22;16450;50.288;10.966;2024-01-15T09:21:35;-1.30;99.90
29501;DHT22;16450;50.288;10.966;2024-01-15T09:24:36;-1.20;99.90
29501;DHT22;16450;50.288;10.966;2024-01-15T09:27:38;-1.20;99.90
29501;DHT22;16450;50.288;10.966;2024-01-15T09:30:40;-1.20;99.90
29501;DHT22;16450;50.288;10.966;2024-01-15T09:33:43;-1.20;99.90
29501;DHT22;16450;50.288;10.966;2024-01-15T09:36:45;-1.20;99.90
29501;DHT22;16450;50.288;10.966;2024-01-15T09:39:47;-1.20;99.90
29501;DHT22;16450;50.288;10.966;2024-01-15T09:42:50;-1.20;99.90
29501;DHT22;16450;50.288;10.966;2024-01-15T09:45:53;-1.20;99.90
29501;DHT22;16450;50.288;10.966;2024-01-15T09:48:56;-1.20;99.90
29501;DHT22;16450;50.288;10.966;2024-01-15T09:51:58;-1.20;99.90
29501;DHT22;16450;50.288;10.966;2024-01-15T09:55:13;-1.10;99.90
29501;DHT22;16450;50.288;10.966;2024-01-15T09:58:15;-1.10;99.90
29501;DHT22;16450;50.288;10.966;2024-01-15T10:01:17;-1.10;99.90
29501;DHT22;16450;50.288;10.966;2024-01-15T10:04:19;-1.10;99.90
29501;DHT22;16450;50.288;10.966;2024-01-15T10:07:21;-1.00;99.90
29501;DHT22;16450;50.288;10.966;2024-01-15T10:10:24;-0.90;99.90
29501;DHT22;16450;50.288;10.966;2024-01-15T10:13:26;-0.90;99.90
29501;DHT22;16450;50.288;10.966;2024-01-15T10:16:29;-0.80;99.90
29501;DHT22;16450;50.288;10.966;2024-01-15T10:19:31;-0.80;99.90
29501;DHT22;16450;50.288;10.966;2024-01-15T10:22:33;-0.70;99.90
29501;DHT22;16450;50.288;10.966;2024-01-15T10:25:35;-0.60;99.90
29501;DHT22;16450;50.288;10.966;2024-01-15T10:28:37;-0.50;99.90
29501;DHT22;16450;50.288;10.966;2024-01-15T10:31:39;-0.50;99.90
29501;DHT22;16450;50.288;10.966;2024-01-15T10:34:41;-0.40;99.90
29501;DHT22;16450;50.288;10.966;2024-01-15T10:37:43;-0.40;99.90
29501;DHT22;16450;50.288;10.966;2024-01-15T10:40:45;-0.40;99.90
29501;DHT22;16450;50.288;10.966;2024-01-15T10:43:48;-0.30;99.90
29501;DHT22;16450;50.288;10.966;2024-01-15T10:46:50;-0.30;99.90
29501;DHT22;16450;50.288;10.966;2024-01-15T10:49:52;-0.30;99.90
29501;DHT22;16450;50.288;10.966;2024-01-15T10:52:55;-0.30;99.90
29501;DHT22;16450;50.288;10.966;2024-01-15T10:55:58;-0.30;99.90
29501;DHT22;16450;50.288;10.966;2024-01-15T10:59:00;-0.30;99.90
29501;DHT22;16450;50.288;10.966;2024-01-15T11:02:02;-0.30;99.90
29501;DHT22;16450;50.288;10.966;2024-01-15T11:05:06;-0.30;99.90
29501;DHT22;16450;50.288;10.966;2024-01-15T11:08:09;-0.30;99.90
29501;DHT22;16450;50.288;10.966;2024-01-15T11:11:11;-0.30;99.90
29501;DHT22;16450;50.288;10.966;2024-01-15T11:14:47;-0.30;99.90
29501;DHT22;16450;50.288;10.966;2024-01-15T11:17:59;-0.30;99.90
29501;DHT22;16450;50.288;10.966;2024-01-15T11:24:53;-0.30;99.90
29501;DHT22;16450;50.288;10.966;2024-01-15T11:27:55;-0.40;99.90
29501;DHT22;16450;50.288;10.966;2024-01-15T11:30:59;-0.40;99.90
29501;DHT22;16450;50.288;10.966;2024-01-15T11:34:01;-0.30;99.90
29501;DHT22;16450;50.288;10.966;2024-01-15T11:37:03;-0.30;99.90
29501;DHT22;16450;50.288;10.966;2024-01-15T11:40:06;-0.30;99.90
29501;DHT22;16450;50.288;10.966;2024-01-15T11:43:12;-0.30;99.90
29501;DHT22;16450;50.288;10.966;2024-01-15T11:46:18;-0.30;99.90
29501;DHT22;16450;50.288;10.966;2024-01-15T11:53:02;-0.20;99.90
29501;DHT22;16450;50.288;10.966;2024-01-15T11:56:14;-0.20;99.90
29501;DHT22;16450;50.288;10.966;2024-01-15T11:59:17;-0.20;99.90
29501;DHT22;16450;50.288;10.966;2024-01-15T12:02:19;-0.10;99.90
29501;DHT22;16450;50.288;10.966;2024-01-15T12:05:23;-0.10;99.90
29501;DHT22;16450;50.288;10.966;2024-01-15T12:08:25;-0.10;99.90
29501;DHT22;16450;50.288;10.966;2024-01-15T12:11:28;-0.10;99.90
29501;DHT22;16450;50.288;10.966;2024-01-15T12:14:32;-0.10;99.90
29501;DHT22;16450;50.288;10.966;2024-01-15T12:17:35;-0.10;99.90
29501;DHT22;16450;50.288;10.966;2024-01-15T12:20:37;-0.10;99.90
29501;DHT22;16450;50.288;10.966;2024-01-15T12:23:39;-0.10;99.90
29501;DHT22;16450;50.288;10.966;2024-01-15T12:26:41;-0.10;99.90
29501;DHT22;16450;50.288;10.966;2024-01-15T12:29:43;-0.20;99.90
29501;DHT22;16450;50.288;10.966;2024-01-15T12:32:45;-0.20;99.90
29501;DHT22;16450;50.288;10.966;2024-01-15T12:35:53;-0.20;99.90
29501;DHT22;16450;50.288;10.966;2024-01-15T12:38:59;-0.20;99.90
29501;DHT22;16450;50.288;10.966;2024-01-15T12:42:02;-0.20;99.90
29501;DHT22;16450;50.288;10.966;2024-01-15T12:45:06;-0.20;99.90
29501;DHT22;16450;50.288;10.966;2024-01-15T12:48:07;-0.20;99.90
29501;DHT22;16450;50.288;10.966;2024-01-15T12:51:09;-0.20;99.90
29501;DHT22;16450;50.288;10.966;2024-01-15T12:54:12;-0.20;99.90
29501;DHT22;16450;50.288;10.966;2024-01-15T12:57:14;-0.20;99.90
29501;DHT22;16450;50.288;10.966;2024-01-15T13:00:16;-0.20;99.90
29501;DHT22;16450;50.288;10.966;2024-01-15T13:03:18;-0.20;99.90
29501;DHT22;16450;50.288;10.966;2024-01-15T13:06:20;-0.20;99.90
29501;DHT22;16450;50.288;10.966;2024-01-15T13:09:22;-0.10;99.90
29501;DHT22;16450;50.288;10.966;2024-01-15T13:12:24;-0.10;99.90
29501;DHT22;16450;50.288;10.966;2024-01-15T13:15:25;0.00;99.90
29501;DHT22;16450;50.288;10.966;2024-01-15T13:18:28;0.00;99.90
29501;DHT22;16450;50.288;10.966;2024-01-15T13:21:30;0.10;99.90
29501;DHT22;16450;50.288;10.966;2024-01-15T13:24:32;0.10;99.90
29501;DHT22;16450;50.288;10.966;2024-01-15T13:27:34;0.20;99.90
29501;DHT22;16450;50.288;10.966;2024-01-15T13:30:42;0.20;99.90
29501;DHT22;16450;50.288;10.966;2024-01-15T13:33:45;0.20;99.90
29501;DHT22;16450;50.288;10.966;2024-01-15T13:36:47;0.20;99.90
29501;DHT22;16450;50.288;10.966;2024-01-15T13:39:49;0.30;99.90
29501;DHT22;16450;50.288;10.966;2024-01-15T13:42:50;0.30;99.90
29501;DHT22;16450;50.288;10.966;2024-01-15T13:45:54;0.30;99.90
29501;DHT22;16450;50.288;10.966;2024-01-15T13:48:56;0.20;99.90
29501;DHT22;16450;50.288;10.966;2024-01-15T13:51:58;0.20;99.90
29501;DHT22;16450;50.288;10.966;2024-01-15T13:55:00;0.20;99.90
29501;DHT22;16450;50.288;10.966;2024-01-15T13:58:04;0.10;99.90
29501;DHT22;16450;50.288;10.966;2024-01-15T14:01:07;0.10;99.90
29501;DHT22;16450;50.288;10.966;2024-01-15T14:04:09;0.10;99.90
29501;DHT22;16450;50.288;10.966;2024-01-15T14:07:11;0.10;99.90
29501;DHT22;16450;50.288;10.966;2024-01-15T14:10:13;0.00;99.90
29501;DHT22;16450;50.288;10.966;2024-01-15T14:13:15;0.00;99.90
29501;DHT22;16450;50.288;10.966;2024-01-15T14:16:17;-0.10;99.90
29501;DHT22;16450;50.288;10.966;2024-01-15T14:19:26;-0.10;99.90
29501;DHT22;16450;50.288;10.966;2024-01-15T14:22:28;-0.10;99.90
29501;DHT22;16450;50.288;10.966;2024-01-15T14:25:30;-0.10;99.90
29501;DHT22;16450;50.288;10.966;2024-01-15T14:28:32;-0.20;99.90
29501;DHT22;16450;50.288;10.966;2024-01-15T14:31:35;-0.20;99.90
29501;DHT22;16450;50.288;10.966;2024-01-15T14:34:37;-0.20;99.90
29501;DHT22;16450;50.288;10.966;2024-01-15T14:37:40;-0.20;99.90
29501;DHT22;16450;50.288;10.966;2024-01-15T14:40:41;-0.20;99.90
29501;DHT22;16450;50.288;10.966;2024-01-15T14:43:43;-0.20;99.90
29501;DHT22;16450;50.288;10.966;2024-01-15T14:46:46;-0.30;99.90
29501;DHT22;16450;50.288;10.966;2024-01-15T14:49:48;-0.30;99.90
29501;DHT22;16450;50.288;10.966;2024-01-15T14:52:50;-0.30;99.90
29501;DHT22;16450;50.288;10.966;2024-01-15T14:55:51;-0.30;99.90
29501;DHT22;16450;50.288;10.966;2024-01-15T14:58:55;-0.30;99.90
29501;DHT22;16450;50.288;10.966;2024-01-15T15:01:57;-0.30;99.90
29501;DHT22;16450;50.288;10.966;2024-01-15T15:04:59;-0.30;99.90
29501;DHT22;16450;50.288;10.966;2024-01-15T15:08:01;-0.30;99.90
29501;DHT22;16450;50.288;10.966;2024-01-15T15:11:06;-0.30;99.90
29501;DHT22;16450;50.288;10.966;2024-01-15T15:14:08;-0.40;99.90
29501;DHT22;16450;50.288;10.966;2024-01-15T15:17:10;-0.40;99.90
29501;DHT22;16450;50.288;10.966;2024-01-15T15:20:13;-0.40;99.90
29501;DHT22;16450;50.288;10.966;2024-01-15T15:23:15;-0.40;99.90
29501;DHT22;16450;50.288;10.966;2024-01-15T15:26:18;-0.40;99.90
29501;DHT22;16450;50.288;10.966;2024-01-15T15:29:20;-0.40;99.90
29501;DHT22;16450;50.288;10.966;2024-01-15T15:32:24;-0.40;99.90
29501;DHT22;16450;50.288;10.966;2024-01-15T15:35:26;-0.40;99.90
29501;DHT22;16450;50.288;10.966;2024-01-15T15:38:27;-0.40;99.90
29501;DHT22;16450;50.288;10.966;2024-01-15T15:41:31;-0.40;99.90
29501;DHT22;16450;50.288;10.966;2024-01-15T15:44:32;-0.40;99.90
29501;DHT22;16450;50.288;10.966;2024-01-15T15:47:35;-0.40;99.90
29501;DHT22;16450;50.288;10.966;2024-01-15T15:50:37;-0.40;99.90
29501;DHT22;16450;50.288;10.966;2024-01-15T15:53:39;-0.40;99.90
29501;DHT22;16450;50.288;10.966;2024-01-15T15:56:41;-0.40;99.90
29501;DHT22;16450;50.288;10.966;2024-01-15T15:59:49;-0.40;99.90
29501;DHT22;16450;50.288;10.966;2024-01-15T16:02:51;-0.50;99.90
29501;DHT22;16450;50.288;10.966;2024-01-15T16:05:53;-0.40;99.90
29501;DHT22;16450;50.288;10.966;2024-01-15T16:08:55;-0.50;99.90
29501;DHT22;16450;50.288;10.966;2024-01-15T16:11:57;-0.50;99.90
29501;DHT22;16450;50.288;10.966;2024-01-15T16:15:01;-0.50;99.90
29501;DHT22;16450;50.288;10.966;2024-01-15T16:18:05;-0.50;99.90
29501;DHT22;16450;50.288;10.966;2024-01-15T16:21:27;-0.50;99.90
29501;DHT22;16450;50.288;10.966;2024-01-15T16:24:49;-0.50;99.90
29501;DHT22;16450;50.288;10.966;2024-01-15T16:27:54;-0.50;99.90
29501;DHT22;16450;50.288;10.966;2024-01-15T16:30:57;-0.50;99.90
29501;DHT22;16450;50.288;10.966;2024-01-15T16:34:05;-0.50;99.90
29501;DHT22;16450;50.288;10.966;2024-01-15T16:37:12;-0.60;99.90
29501;DHT22;16450;50.288;10.966;2024-01-15T16:40:14;-0.50;99.90
29501;DHT22;16450;50.288;10.966;2024-01-15T16:43:16;-0.60;99.90
29501;DHT22;16450;50.288;10.966;2024-01-15T16:46:17;-0.50;99.90
29501;DHT22;16450;50.288;10.966;2024-01-15T16:49:19;-0.50;99.90
29501;DHT22;16450;50.288;10.966;2024-01-15T16:52:21;-0.50;99.90
29501;DHT22;16450;50.288;10.966;2024-01-15T16:55:24;-0.50;99.90
29501;DHT22;16450;50.288;10.966;2024-01-15T16:58:27;-0.50;99.90
29501;DHT22;16450;50.288;10.966;2024-01-15T17:01:28;-0.50;99.90
29501;DHT22;16450;50.288;10.966;2024-01-15T17:04:30;-0.50;99.90
29501;DHT22;16450;50.288;10.966;2024-01-15T17:07:32;-0.50;99.90
29501;DHT22;16450;50.288;10.966;2024-01-15T17:10:34;-0.50;99.90
29501;DHT22;16450;50.288;10.966;2024-01-15T17:13:36;-0.50;99.90
29501;DHT22;16450;50.288;10.966;2024-01-15T17:16:38;-0.50;99.90
29501;DHT22;16450;50.288;10.966;2024-01-15T17:19:40;-0.50;99.90
29501;DHT22;16450;50.288;10.966;2024-01-15T17:22:42;-0.50;99.90
29501;DHT22;16450;50.288;10.966;2024-01-15T17:25:43;-0.50;99.90
29501;DHT22;16450;50.288;10.966;2024-01-15T17:28:45;-0.40;99.90
29501;DHT22;16450;50.288;10.966;2024-01-15T17:31:48;-0.50;99.90
29501;DHT22;16450;50.288;10.966;2024-01-15T17:34:50;-0.40;99.90
29501;DHT22;16450;50.288;10.966;2024-01-15T17:37:52;-0.40;99.90
29501;DHT22;16450;50.288;10.966;2024-01-15T17:40:54;-0.40;99.90
29501;DHT22;16450;50.288;10.966;2024-01-15T17:43:56;-0.40;99.90
29501;DHT22;16450;50.288;10.966;2024-01-15T17:46:57;-0.40;99.90
29501;DHT22;16450;50.288;10.966;2024-01-15T17:49:59;-0.40;99.90
29501;DHT22;16450;50.288;10.966;2024-01-15T17:53:02;-0.40;99.90
29501;DHT22;16450;50.288;10.966;2024-01-15T17:56:04;-0.40;99.90
29501;DHT22;16450;50.288;10.966;2024-01-15T17:59:06;-0.40;99.90
29501;DHT22;16450;50.288;10.966;2024-01-15T18:02:08;-0.40;99.90
29501;DHT22;16450;50.288;10.966;2024-01-15T18:05:10;-0.40;99.90
29501;DHT22;16450;50.288;10.966;2024-01-15T18:08:12;-0.40;99.90
29501;DHT22;16450;50.288;10.966;2024-01-15T18:11:17;-0.40;99.90
29501;DHT22;16450;50.288;10.966;2024-01-15T18:14:19;-0.40;99.90
29501;DHT22;16450;50.288;10.966;2024-01-15T18:17:21;-0.40;99.90
29501;DHT22;16450;50.288;10.966;2024-01-15T18:20:25;-0.40;99.90
29501;DHT22;16450;50.288;10.966;2024-01-15T18:23:27;-0.40;99.90
29501;DHT22;16450;50.288;10.966;2024-01-15T18:26:29;-0.40;99.90
29501;DHT22;16450;50.288;10.966;2024-01-15T18:29:30;-0.40;99.90
29501;DHT22;16450;50.288;10.966;2024-01-15T18:32:33;-0.40;99.90
29501;DHT22;16450;50.288;10.966;2024-01-15T18:35:35;-0.40;99.90
29501;DHT22;16450;50.288;10.966;2024-01-15T18:38:37;-0.40;99.90
29501;DHT22;16450;50.288;10.966;2024-01-15T18:41:39;-0.40;99.90
29501;DHT22;16450;50.288;10.966;2024-01-15T18:44:41;-0.30;99.90
29501;DHT22;16450;50.288;10.966;2024-01-15T18:47:46;-0.30;99.90
29501;DHT22;16450;50.288;10.966;2024-01-15T18:50:48;-0.30;99.90
29501;DHT22;16450;50.288;10.966;2024-01-15T18:53:51;-0.30;99.90
29501;DHT22;16450;50.288;10.966;2024-01-15T18:56:53;-0.30;99.90
29501;DHT22;16450;50.288;10.966;2024-01-15T18:59:55;-0.30;99.90
29501;DHT22;16450;50.288;10.966;2024-01-15T19:02:57;-0.30;99.90
29501;DHT22;16450;50.288;10.966;2024-01-15T19:06:00;-0.30;99.90